Time;durP1;ratioP1;P1;durP2;ratioP2;P2;SDS_P1;SDS_P2;PMS_P1;PMS_P2;Temp;Humidity;BMP_temperature;BMP_pressure;BME280_temperature;BME280_humidity;BME280_pressure;Samples;Min_cycle;Max_cycle;Signal;HPM_P1;HPM_P2
2023/08/04 00:02:00;;;;;;;7.05;2.78;;;16.30;99.90;;;;;;5085699;28;20182;-74
2023/08/04 00:04:26;;;;;;;7.85;2.92;;;16.30;99.90;;;;;;5062741;28;20035;-75
2023/08/04 00:06:52;;;;;;;5.45;2.90;;;16.30;99.90;;;;;;5085491;28;20188;-75
2023/08/04 00:09:18;;;;;;;7.50;3.55;;;16.20;99.90;;;;;;5065641;28;20054;-76
2023/08/04 00:11:44;;;;;;;8.10;2.97;;;16.20;99.90;;;;;;5084233;28;20499;-75
2023/08/04 00:14:09;;;;;;;6.53;3.30;;;16.20;99.90;;;;;;5064271;28;20502;-75
2023/08/04 00:16:35;;;;;;;7.60;2.55;;;16.20;99.90;;;;;;5068204;28;20547;-75
2023/08/04 00:19:01;;;;;;;6.78;2.88;;;16.20;99.90;;;;;;5068219;28;20038;-75
2023/08/04 00:21:27;;;;;;;6.68;3.40;;;16.20;99.90;;;;;;5066013;28;20466;-75
2023/08/04 00:24:02;;;;;;;6.40;3.17;;;16.20;99.90;;;;;;5081001;28;20835;-75
2023/08/04 00:26:27;;;;;;;8.55;3.20;;;16.20;99.90;;;;;;5068424;28;20071;-75
2023/08/04 00:28:53;;;;;;;6.97;3.80;;;16.20;99.90;;;;;;5067957;28;20078;-75
2023/08/04 00:31:19;;;;;;;9.75;2.88;;;16.10;99.90;;;;;;5063615;28;20059;-75
2023/08/04 00:33:44;;;;;;;8.32;3.05;;;16.10;99.90;;;;;;5067513;28;20057;-75
2023/08/04 00:36:10;;;;;;;6.32;3.08;;;16.10;99.90;;;;;;5063625;28;20052;-75
2023/08/04 00:38:36;;;;;;;7.53;3.17;;;16.10;99.90;;;;;;5068270;28;20508;-75
2023/08/04 00:41:02;;;;;;;6.43;3.10;;;16.00;99.90;;;;;;5101872;28;20035;-75
2023/08/04 00:43:27;;;;;;;6.82;3.38;;;16.00;99.90;;;;;;5114962;27;20047;-75
2023/08/04 00:45:53;;;;;;;6.80;3.28;;;16.00;99.90;;;;;;5067003;28;20048;-75
2023/08/04 00:48:19;;;;;;;8.50;3.90;;;16.00;99.90;;;;;;5076127;28;20063;-75
2023/08/04 00:50:45;;;;;;;8.13;3.42;;;16.00;99.90;;;;;;5082667;28;20604;-75
2023/08/04 00:53:11;;;;;;;7.03;3.78;;;15.90;99.90;;;;;;5084574;28;20044;-75
2023/08/04 00:55:37;;;;;;;6.00;3.20;;;15.90;99.90;;;;;;5066693;28;20520;-75
2023/08/04 00:58:03;;;;;;;8.70;3.20;;;15.90;99.90;;;;;;5069606;28;20048;-75
2023/08/04 01:00:30;;;;;;;7.95;3.83;;;15.80;99.90;;;;;;5062767;28;20062;-76
2023/08/04 01:02:56;;;;;;;8.55;3.58;;;15.90;99.90;;;;;;5079159;28;20345;-75
2023/08/04 01:05:29;;;;;;;9.48;4.10;;;15.80;99.90;;;;;;5062214;28;20064;-75
2023/08/04 01:08:11;;;;;;;7.90;3.20;;;15.80;99.90;;;;;;5064996;28;20056;-75
2023/08/04 01:10:47;;;;;;;8.60;3.38;;;15.80;99.90;;;;;;5099445;27;20036;-75
2023/08/04 01:13:18;;;;;;;5.57;3.00;;;15.80;99.90;;;;;;5087645;28;20406;-74
2023/08/04 01:15:44;;;;;;;6.20;3.05;;;15.80;99.90;;;;;;5084323;28;20056;-75
2023/08/04 01:18:10;;;;;;;7.93;3.47;;;15.90;99.90;;;;;;5061968;28;20032;-75
2023/08/04 01:20:36;;;;;;;8.52;3.20;;;15.80;99.90;;;;;;5082856;28;20052;-75
2023/08/04 01:23:02;;;;;;;8.68;3.33;;;15.80;99.90;;;;;;5084674;28;20554;-74
2023/08/04 01:25:33;;;;;;;5.85;2.90;;;15.80;99.90;;;;;;5099345;28;20113;-76
2023/08/04 01:28:07;;;;;;;7.40;3.10;;;15.80;99.90;;;;;;5082452;28;20044;-75
2023/08/04 01:30:34;;;;;;;8.63;2.50;;;15.80;99.90;;;;;;5083142;28;20044;-75
2023/08/04 01:32:59;;;;;;;6.90;2.80;;;15.80;99.90;;;;;;5072723;28;20036;-75
2023/08/04 01:35:26;;;;;;;6.93;2.72;;;15.80;99.90;;;;;;5063272;28;20044;-74
2023/08/04 01:37:52;;;;;;;6.07;2.58;;;15.80;99.90;;;;;;5066178;28;20495;-76
2023/08/04 01:40:17;;;;;;;7.93;2.72;;;15.80;99.90;;;;;;5060449;28;20116;-76
2023/08/04 01:42:43;;;;;;;7.30;2.00;;;15.80;99.90;;;;;;5082887;28;20043;-76
2023/08/04 01:45:09;;;;;;;4.63;1.85;;;15.80;99.90;;;;;;5079876;28;20048;-76
2023/08/04 01:47:40;;;;;;;3.95;1.40;;;15.80;99.90;;;;;;5085135;28;20048;-76
2023/08/04 01:50:09;;;;;;;5.22;2.00;;;15.80;99.90;;;;;;5066410;28;20094;-76
2023/08/04 01:52:36;;;;;;;4.47;1.85;;;15.80;99.90;;;;;;5058269;28;20108;-75
2023/08/04 01:55:02;;;;;;;5.68;1.90;;;15.80;99.90;;;;;;5084950;28;20062;-75
2023/08/04 01:57:27;;;;;;;4.22;1.60;;;15.80;99.90;;;;;;5064142;28;20135;-76
2023/08/04 01:59:53;;;;;;;4.15;1.60;;;15.80;99.90;;;;;;5078220;28;20151;-75
2023/08/04 02:02:19;;;;;;;4.50;1.80;;;15.80;99.90;;;;;;5065242;28;21255;-76
2023/08/04 02:04:45;;;;;;;7.25;1.92;;;15.80;99.90;;;;;;5067777;28;20036;-76
2023/08/04 02:07:10;;;;;;;4.43;1.90;;;15.80;99.90;;;;;;5062698;28;20032;-75
2023/08/04 02:09:36;;;;;;;3.78;1.50;;;15.80;99.90;;;;;;5084867;28;20111;-75
2023/08/04 02:12:02;;;;;;;3.88;1.45;;;15.70;99.90;;;;;;5078808;28;20054;-75
2023/08/04 02:14:28;;;;;;;3.38;1.75;;;15.70;99.90;;;;;;5066681;28;20082;-76
2023/08/04 02:16:54;;;;;;;4.72;1.55;;;15.70;99.90;;;;;;5081270;28;20036;-75
2023/08/04 02:19:23;;;;;;;5.07;1.95;;;15.70;99.90;;;;;;5063545;28;20391;-75
2023/08/04 02:21:49;;;;;;;7.82;2.40;;;15.60;99.90;;;;;;5065165;28;20626;-75
2023/08/04 02:24:15;;;;;;;5.78;2.80;;;15.60;99.90;;;;;;5081954;28;20188;-74
2023/08/04 02:26:44;;;;;;;4.80;2.38;;;15.60;99.90;;;;;;5079720;28;20526;-75
2023/08/04 02:29:10;;;;;;;4.05;2.30;;;15.50;99.90;;;;;;5082231;28;20120;-75
2023/08/04 02:31:36;;;;;;;6.40;2.88;;;15.60;99.90;;;;;;5081860;28;20081;-74
2023/08/04 02:34:02;;;;;;;5.82;2.72;;;15.50;99.90;;;;;;5086513;28;20040;-75
2023/08/04 02:36:28;;;;;;;5.47;2.58;;;15.50;99.90;;;;;;5080905;28;20521;-75
2023/08/04 02:38:54;;;;;;;7.10;3.00;;;15.50;99.90;;;;;;5069018;28;20056;-75
2023/08/04 02:41:20;;;;;;;6.78;2.95;;;15.50;99.90;;;;;;5083886;28;20135;-75
2023/08/04 02:43:45;;;;;;;7.07;2.95;;;15.50;99.90;;;;;;5080609;28;20036;-75
2023/08/04 02:46:11;;;;;;;10.52;4.15;;;15.50;99.90;;;;;;5066311;28;20052;-74
2023/08/04 02:48:37;;;;;;;9.15;3.55;;;15.50;99.90;;;;;;5084150;28;20105;-74
2023/08/04 02:51:09;;;;;;;6.28;3.17;;;15.60;99.90;;;;;;5062041;28;20047;-74
2023/08/04 02:53:40;;;;;;;7.72;3.35;;;15.60;99.90;;;;;;5065978;28;20039;-75
2023/08/04 02:56:14;;;;;;;10.75;3.55;;;15.50;99.90;;;;;;5080597;28;20036;-74
2023/08/04 02:58:41;;;;;;;7.22;3.47;;;15.60;99.90;;;;;;5082129;28;20044;-74
2023/08/04 03:01:06;;;;;;;12.43;3.92;;;15.60;99.90;;;;;;5083303;28;20109;-74
2023/08/04 03:03:35;;;;;;;7.35;4.30;;;15.60;99.90;;;;;;5064960;28;20039;-74
2023/08/04 03:06:04;;;;;;;7.60;3.45;;;15.60;99.90;;;;;;5065289;28;20089;-74
2023/08/04 03:08:31;;;;;;;9.18;2.92;;;15.50;99.90;;;;;;5061720;28;20037;-75
2023/08/04 03:10:57;;;;;;;7.43;2.80;;;15.50;99.90;;;;;;5077422;28;20044;-75
2023/08/04 03:13:23;;;;;;;6.95;3.22;;;15.50;99.90;;;;;;5083490;28;20048;-74
2023/08/04 03:16:00;;;;;;;5.95;2.70;;;15.50;99.90;;;;;;5066765;28;20559;-75
2023/08/04 03:18:27;;;;;;;8.75;3.10;;;15.50;99.90;;;;;;5062976;28;20119;-75
2023/08/04 03:20:53;;;;;;;4.80;2.40;;;15.40;99.90;;;;;;5066507;28;20708;-74
2023/08/04 03:23:21;;;;;;;4.07;2.00;;;15.40;99.90;;;;;;5082265;28;20032;-75
2023/08/04 03:25:47;;;;;;;6.50;2.45;;;15.40;99.90;;;;;;5080506;28;20134;-75
2023/08/04 03:28:13;;;;;;;5.28;2.40;;;15.30;99.90;;;;;;5064220;28;20044;-75
2023/08/04 03:30:39;;;;;;;4.88;2.35;;;15.20;99.90;;;;;;5081176;28;20067;-75
2023/08/04 03:33:05;;;;;;;4.13;1.90;;;15.20;99.90;;;;;;5082114;28;21221;-74
2023/08/04 03:35:31;;;;;;;7.70;2.85;;;15.20;99.90;;;;;;5066203;28;20036;-74
2023/08/04 03:37:58;;;;;;;6.10;2.50;;;15.10;99.90;;;;;;5082035;28;20079;-75
2023/08/04 03:40:24;;;;;;;6.80;3.10;;;15.10;99.90;;;;;;5081610;28;20043;-75
2023/08/04 03:42:49;;;;;;;7.28;3.00;;;15.00;99.90;;;;;;5064095;28;20551;-75
2023/08/04 03:45:15;;;;;;;8.75;2.50;;;15.00;99.90;;;;;;5081365;28;20162;-75
2023/08/04 03:47:41;;;;;;;6.53;2.47;;;15.00;99.90;;;;;;5064872;28;20055;-75
2023/08/04 03:50:07;;;;;;;6.57;2.80;;;15.00;99.90;;;;;;5082781;28;20050;-75
2023/08/04 03:52:33;;;;;;;5.68;3.03;;;15.00;99.90;;;;;;5080223;28;20047;-75
2023/08/04 03:54:59;;;;;;;5.63;2.50;;;15.00;99.90;;;;;;5080874;28;20075;-75
2023/08/04 03:57:25;;;;;;;5.30;2.53;;;15.10;99.90;;;;;;5063391;28;20087;-75
2023/08/04 03:59:52;;;;;;;5.63;2.55;;;15.10;99.90;;;;;;5060839;28;20036;-75
2023/08/04 04:02:19;;;;;;;5.95;2.80;;;15.10;99.90;;;;;;5064989;28;20036;-75
2023/08/04 04:04:44;;;;;;;6.15;2.97;;;15.20;99.90;;;;;;5081391;28;20743;-75
2023/08/04 04:07:10;;;;;;;6.90;2.75;;;15.10;99.90;;;;;;5080118;28;20523;-75
2023/08/04 04:09:36;;;;;;;5.32;2.28;;;15.20;99.90;;;;;;5062793;28;20051;-74
2023/08/04 04:12:02;;;;;;;4.85;2.58;;;15.20;99.90;;;;;;5063957;28;20051;-75
2023/08/04 04:14:28;;;;;;;6.80;3.10;;;15.20;99.90;;;;;;5076698;28;20494;-74
2023/08/04 04:16:54;;;;;;;3.83;2.40;;;15.20;99.90;;;;;;5068004;28;20047;-75
2023/08/04 04:19:19;;;;;;;4.90;2.55;;;15.20;99.90;;;;;;5065652;28;20483;-75
2023/08/04 04:21:45;;;;;;;6.00;2.40;;;15.20;99.90;;;;;;5067441;28;20594;-75
2023/08/04 04:24:11;;;;;;;4.03;2.22;;;15.20;99.90;;;;;;5063829;28;20064;-74
2023/08/04 04:26:36;;;;;;;5.85;2.22;;;15.20;99.90;;;;;;5085832;28;20064;-74
2023/08/04 04:29:02;;;;;;;5.38;2.70;;;15.20;99.90;;;;;;5087731;28;20089;-75
2023/08/04 04:31:28;;;;;;;6.50;2.90;;;15.20;99.90;;;;;;5082111;28;20130;-74
2023/08/04 04:33:54;;;;;;;6.30;2.40;;;15.20;99.90;;;;;;5085194;28;20047;-74
2023/08/04 04:36:19;;;;;;;5.05;2.67;;;15.20;99.90;;;;;;5064976;28;20036;-75
2023/08/04 04:38:45;;;;;;;6.57;2.55;;;15.30;99.90;;;;;;5081627;28;20644;-74
2023/08/04 04:41:11;;;;;;;5.18;2.30;;;15.30;99.90;;;;;;5069343;28;20040;-74
2023/08/04 04:43:37;;;;;;;5.13;2.55;;;15.30;99.90;;;;;;5084607;28;20415;-74
2023/08/04 04:46:04;;;;;;;6.97;2.55;;;15.30;99.90;;;;;;5065087;28;20504;-74
2023/08/04 04:48:30;;;;;;;5.78;2.40;;;15.30;99.90;;;;;;5065367;28;20457;-74
2023/08/04 04:50:55;;;;;;;5.25;2.25;;;15.30;99.90;;;;;;5066919;28;20052;-74
2023/08/04 04:53:21;;;;;;;5.32;2.55;;;15.40;99.90;;;;;;5081567;28;20105;-74
2023/08/04 04:55:47;;;;;;;4.57;2.20;;;15.30;99.90;;;;;;5087214;28;20040;-74
2023/08/04 04:58:13;;;;;;;4.50;2.30;;;15.40;99.90;;;;;;5078992;28;20380;-74
2023/08/04 05:00:39;;;;;;;3.60;1.90;;;15.40;99.90;;;;;;5084248;28;20125;-75
2023/08/04 05:03:06;;;;;;;3.72;2.22;;;15.40;99.90;;;;;;5083210;28;20044;-75
2023/08/04 05:05:33;;;;;;;5.15;2.53;;;15.40;99.90;;;;;;5080948;28;20047;-74
2023/08/04 05:07:59;;;;;;;5.07;2.60;;;15.40;99.90;;;;;;5064710;28;20130;-74
2023/08/04 05:10:25;;;;;;;4.95;2.45;;;15.40;99.90;;;;;;5085930;28;20391;-75
2023/08/04 05:12:51;;;;;;;5.20;1.90;;;15.50;99.90;;;;;;5082161;28;20052;-75
2023/08/04 05:15:17;;;;;;;4.28;2.20;;;15.50;99.90;;;;;;5069116;28;20032;-74
2023/08/04 05:17:44;;;;;;;6.63;2.80;;;15.50;99.90;;;;;;5061410;28;20560;-75
2023/08/04 05:20:11;;;;;;;5.30;2.25;;;15.50;99.90;;;;;;5064700;28;20039;-75
2023/08/04 05:22:40;;;;;;;4.85;2.33;;;15.50;99.90;;;;;;5064310;28;20166;-75
2023/08/04 05:25:06;;;;;;;3.42;2.05;;;15.60;99.90;;;;;;5085356;28;20048;-75
2023/08/04 05:27:32;;;;;;;3.75;2.33;;;15.60;99.90;;;;;;5082265;28;20101;-75
2023/08/04 05:29:58;;;;;;;5.05;3.05;;;15.60;99.90;;;;;;5080902;28;20048;-75
2023/08/04 05:32:24;;;;;;;5.18;2.30;;;15.60;99.90;;;;;;5084598;28;20052;-75
2023/08/04 05:34:49;;;;;;;4.45;2.30;;;15.60;99.90;;;;;;5084708;28;20054;-75
2023/08/04 05:37:15;;;;;;;3.85;2.33;;;15.60;99.90;;;;;;5066237;28;20059;-75
2023/08/04 05:39:41;;;;;;;4.40;2.42;;;15.60;99.90;;;;;;5067473;28;20122;-75
2023/08/04 05:42:07;;;;;;;4.15;2.40;;;15.70;99.90;;;;;;5066477;28;20106;-75
2023/08/04 05:44:33;;;;;;;5.97;2.60;;;15.80;99.90;;;;;;5067393;27;20482;-75
2023/08/04 05:46:59;;;;;;;5.57;2.60;;;15.80;99.90;;;;;;5088797;28;20059;-75
2023/08/04 05:49:25;;;;;;;6.57;2.83;;;15.80;99.90;;;;;;5088001;28;20044;-75
2023/08/04 05:51:51;;;;;;;6.65;2.80;;;15.90;99.90;;;;;;5090431;28;20069;-77
2023/08/04 05:54:17;;;;;;;5.55;2.83;;;15.90;99.90;;;;;;5068681;28;20052;-75
2023/08/04 05:56:43;;;;;;;7.18;3.20;;;16.00;99.90;;;;;;5066858;28;20050;-75
2023/08/04 05:59:08;;;;;;;7.97;2.67;;;16.00;99.90;;;;;;5084020;28;20028;-74
2023/08/04 06:01:34;;;;;;;5.20;2.85;;;16.10;99.90;;;;;;5068480;27;20083;-75
2023/08/04 06:04:00;;;;;;;4.55;2.88;;;16.10;99.90;;;;;;5085914;28;20035;-74
2023/08/04 06:06:26;;;;;;;6.47;3.10;;;16.20;99.90;;;;;;5086478;27;20039;-74
2023/08/04 06:08:52;;;;;;;6.95;3.60;;;16.20;99.90;;;;;;5070270;28;20040;-74
2023/08/04 06:11:18;;;;;;;6.13;2.92;;;16.20;99.90;;;;;;5085907;28;20566;-74
2023/08/04 06:13:44;;;;;;;7.43;2.97;;;16.20;99.90;;;;;;5084291;28;20070;-75
2023/08/04 06:16:09;;;;;;;6.40;3.10;;;16.20;99.90;;;;;;5070011;27;20071;-74
2023/08/04 06:18:35;;;;;;;5.22;3.28;;;16.30;99.90;;;;;;5087325;28;20047;-74
2023/08/04 06:21:01;;;;;;;8.65;3.08;;;16.30;99.90;;;;;;5081217;28;20763;-74
2023/08/04 06:23:27;;;;;;;8.63;2.75;;;16.30;99.90;;;;;;5082207;28;20486;-75
2023/08/04 06:25:52;;;;;;;5.78;3.00;;;16.40;99.90;;;;;;5115466;27;20138;-74
2023/08/04 06:28:18;;;;;;;6.95;2.83;;;16.40;99.90;;;;;;5084897;27;20040;-75
2023/08/04 06:30:44;;;;;;;6.43;3.40;;;16.50;99.90;;;;;;5086463;28;20051;-75
2023/08/04 06:33:10;;;;;;;6.45;2.90;;;16.50;99.90;;;;;;5082780;28;20115;-75
2023/08/04 06:35:41;;;;;;;4.80;2.65;;;16.60;99.90;;;;;;5115945;27;20082;-75
2023/08/04 06:38:10;;;;;;;7.15;3.10;;;16.60;99.90;;;;;;5082165;28;20127;-75
2023/08/04 06:40:37;;;;;;;5.18;2.45;;;16.70;99.90;;;;;;5070797;28;20047;-74
2023/08/04 06:43:03;;;;;;;4.53;2.55;;;16.70;99.90;;;;;;5066623;28;20039;-74
2023/08/04 06:45:29;;;;;;;6.35;2.80;;;16.80;99.90;;;;;;5083011;28;20104;-74
2023/08/04 06:47:55;;;;;;;6.40;3.30;;;16.80;99.90;;;;;;5069019;28;20050;-74
2023/08/04 06:50:20;;;;;;;5.18;2.40;;;16.80;99.90;;;;;;5082962;28;20036;-74
2023/08/04 06:52:47;;;;;;;5.72;2.80;;;16.90;99.90;;;;;;5083660;28;20073;-74
2023/08/04 06:55:13;;;;;;;6.50;2.95;;;16.90;99.90;;;;;;5086315;28;20553;-74
2023/08/04 06:57:39;;;;;;;6.03;2.83;;;17.00;99.90;;;;;;5083886;28;20134;-74
2023/08/04 07:00:05;;;;;;;6.88;2.85;;;17.00;99.90;;;;;;5067427;28;20115;-75
2023/08/04 07:02:31;;;;;;;7.30;2.20;;;17.00;99.90;;;;;;5067938;28;20047;-75
2023/08/04 07:04:57;;;;;;;5.97;2.55;;;17.10;99.90;;;;;;5066007;28;20040;-75
2023/08/04 07:07:26;;;;;;;5.97;2.75;;;17.10;99.90;;;;;;5065346;28;20444;-75
2023/08/04 07:09:52;;;;;;;5.25;2.35;;;17.10;99.90;;;;;;5067006;28;20456;-74
2023/08/04 07:12:18;;;;;;;5.13;2.40;;;17.10;99.90;;;;;;5084250;28;20035;-75
2023/08/04 07:14:43;;;;;;;6.80;2.35;;;17.20;99.90;;;;;;5070727;28;20040;-75
2023/08/04 07:17:09;;;;;;;5.70;2.15;;;17.30;99.90;;;;;;5086814;28;20503;-75
2023/08/04 07:19:35;;;;;;;4.60;2.30;;;17.40;99.90;;;;;;5068836;28;20456;-74
2023/08/04 07:22:00;;;;;;;4.55;2.10;;;17.40;99.90;;;;;;5084264;28;20044;-75
2023/08/04 07:24:27;;;;;;;4.55;1.85;;;17.50;99.90;;;;;;5066313;28;20036;-75
2023/08/04 07:26:53;;;;;;;4.72;2.15;;;17.50;99.90;;;;;;5116780;27;20071;-75
2023/08/04 07:29:18;;;;;;;4.75;2.58;;;17.50;99.90;;;;;;5083899;28;20485;-75
2023/08/04 07:31:44;;;;;;;5.05;2.10;;;17.60;99.90;;;;;;5080973;28;20043;-74
2023/08/04 07:34:10;;;;;;;5.95;2.15;;;17.60;99.90;;;;;;5069177;28;20092;-74
2023/08/04 07:36:36;;;;;;;5.30;2.40;;;17.70;99.90;;;;;;5066174;28;20113;-74
2023/08/04 07:39:02;;;;;;;5.72;2.30;;;17.70;99.90;;;;;;5084820;28;20086;-74
2023/08/04 07:41:29;;;;;;;4.20;1.95;;;17.80;99.90;;;;;;5080513;28;20830;-74
2023/08/04 07:43:54;;;;;;;4.82;2.17;;;17.90;99.90;;;;;;5069531;28;20031;-75
2023/08/04 07:46:27;;;;;;;6.63;2.47;;;17.90;99.90;;;;;;5086399;28;20142;-75
2023/08/04 07:48:54;;;;;;;3.53;1.75;;;17.90;99.90;;;;;;5084976;28;20055;-75
2023/08/04 07:51:20;;;;;;;3.00;2.00;;;18.00;99.90;;;;;;5080032;28;20039;-75
2023/08/04 07:53:47;;;;;;;4.32;2.17;;;18.00;99.90;;;;;;5068357;28;20054;-75
2023/08/04 07:56:14;;;;;;;5.35;2.22;;;18.10;99.90;;;;;;5083284;28;20459;-75
2023/08/04 07:58:39;;;;;;;6.32;2.70;;;18.20;99.90;;;;;;5068673;28;20043;-75
2023/08/04 08:01:05;;;;;;;7.57;2.47;;;18.20;99.90;;;;;;5086613;28;20591;-75
2023/08/04 08:03:35;;;;;;;5.70;2.03;;;18.20;99.90;;;;;;5086449;28;20088;-75
2023/08/04 08:06:02;;;;;;;6.38;2.25;;;18.30;99.90;;;;;;5073532;28;20043;-75
2023/08/04 08:08:28;;;;;;;3.33;2.00;;;18.30;99.90;;;;;;5084596;28;20055;-75
2023/08/04 08:10:54;;;;;;;4.03;1.65;;;18.50;99.90;;;;;;5090963;28;20043;-75
2023/08/04 08:13:21;;;;;;;3.85;1.90;;;18.60;99.90;;;;;;5069789;28;20150;-75
2023/08/04 08:15:47;;;;;;;5.03;1.83;;;18.70;99.90;;;;;;5087162;28;20076;-75
2023/08/04 08:18:13;;;;;;;4.22;1.60;;;18.80;99.90;;;;;;5086387;28;20171;-75
2023/08/04 08:20:41;;;;;;;5.15;1.80;;;18.90;99.90;;;;;;5085050;28;20659;-75
2023/08/04 08:23:07;;;;;;;2.83;1.20;;;19.00;99.90;;;;;;5104198;28;20048;-75
2023/08/04 08:25:35;;;;;;;3.75;1.95;;;19.00;99.90;;;;;;5087895;28;20116;-74
2023/08/04 08:28:04;;;;;;;4.35;1.50;;;19.10;99.90;;;;;;5069009;28;20067;-75
2023/08/04 08:30:30;;;;;;;4.38;1.75;;;19.10;99.90;;;;;;5069151;28;20092;-74
2023/08/04 08:32:56;;;;;;;2.78;1.55;;;19.10;99.90;;;;;;5101719;27;20039;-75
2023/08/04 08:35:22;;;;;;;5.40;1.50;;;19.10;99.90;;;;;;5088640;28;20050;-76
2023/08/04 08:37:48;;;;;;;5.38;1.70;;;19.00;99.90;;;;;;5071112;28;20040;-76
2023/08/04 08:40:14;;;;;;;5.13;1.90;;;18.90;99.90;;;;;;5086758;27;20031;-76
2023/08/04 08:42:40;;;;;;;4.57;2.00;;;18.80;99.90;;;;;;5071763;28;20394;-76
2023/08/04 08:45:06;;;;;;;4.70;2.00;;;18.70;99.90;;;;;;5070633;28;20051;-75
2023/08/04 08:47:35;;;;;;;5.65;2.55;;;18.60;99.90;;;;;;5067277;28;20059;-75
2023/08/04 08:50:02;;;;;;;4.82;2.67;;;18.50;99.90;;;;;;5071191;28;20542;-75
2023/08/04 08:52:32;;;;;;;4.35;2.38;;;18.40;99.90;;;;;;5069212;28;20458;-75
2023/08/04 08:54:59;;;;;;;4.97;2.55;;;18.30;99.90;;;;;;5070226;28;20887;-75
2023/08/04 08:57:27;;;;;;;5.45;2.22;;;18.30;99.90;;;;;;5067723;28;20035;-75
2023/08/04 09:00:01;;;;;;;3.67;1.92;;;18.30;99.90;;;;;;5071728;28;20051;-75
2023/08/04 09:02:27;;;;;;;6.00;2.35;;;18.30;99.90;;;;;;5082331;28;20079;-76
2023/08/04 09:04:53;;;;;;;4.03;1.60;;;18.30;99.90;;;;;;5085305;28;20529;-77
2023/08/04 09:07:21;;;;;;;3.20;1.60;;;18.30;99.90;;;;;;5119958;27;20570;-75
2023/08/04 09:09:47;;;;;;;2.88;1.65;;;18.30;99.90;;;;;;5081442;28;20527;-75
2023/08/04 09:12:13;;;;;;;4.68;1.95;;;18.40;99.90;;;;;;5068592;28;20175;-76
2023/08/04 09:14:52;;;;;;;4.35;1.63;;;18.50;99.90;;;;;;5083408;28;20113;-76
2023/08/04 09:17:35;;;;;;;4.07;1.90;;;18.60;99.90;;;;;;5082523;28;20050;-77
2023/08/04 09:20:10;;;;;;;5.93;2.60;;;18.70;99.90;;;;;;5104431;27;20057;-77
2023/08/04 09:22:43;;;;;;;3.70;2.47;;;18.90;99.90;;;;;;5085906;28;20440;-77
2023/08/04 09:25:10;;;;;;;3.30;1.73;;;18.90;99.90;;;;;;5114042;27;20039;-76
2023/08/04 09:27:41;;;;;;;4.93;2.42;;;18.90;99.90;;;;;;5119611;27;20524;-77
2023/08/04 09:30:09;;;;;;;5.50;2.28;;;18.90;99.90;;;;;;5085039;28;20048;-76
2023/08/04 09:32:45;;;;;;;4.60;1.95;;;18.90;99.90;;;;;;5068966;28;20123;-76
2023/08/04 09:35:11;;;;;;;4.72;2.22;;;18.90;99.90;;;;;;5084292;28;20044;-76
2023/08/04 09:37:38;;;;;;;5.20;2.40;;;19.00;99.90;;;;;;5121448;27;20146;-76
2023/08/04 09:40:15;;;;;;;5.10;2.60;;;19.10;99.90;;;;;;5081651;28;20737;-76
2023/08/04 09:42:42;;;;;;;7.10;3.63;;;19.10;99.90;;;;;;5083892;28;20105;-76
2023/08/04 09:45:13;;;;;;;8.02;2.97;;;19.00;99.90;;;;;;5080738;28;20479;-76
2023/08/04 09:47:39;;;;;;;7.15;2.53;;;18.90;99.90;;;;;;5118627;27;20040;-75
2023/08/04 09:50:13;;;;;;;5.53;2.70;;;18.80;99.90;;;;;;5102527;28;20091;-76
2023/08/04 09:52:39;;;;;;;5.43;2.35;;;18.80;99.90;;;;;;5084164;28;20439;-76
2023/08/04 09:55:10;;;;;;;5.95;3.00;;;18.80;99.90;;;;;;5065412;28;20138;-75
2023/08/04 09:57:37;;;;;;;5.95;2.50;;;18.90;99.90;;;;;;5084099;28;20429;-75
2023/08/04 10:00:08;;;;;;;8.43;3.22;;;19.20;99.90;;;;;;5084672;28;20043;-75
2023/08/04 10:02:34;;;;;;;9.10;3.97;;;19.40;99.90;;;;;;5068570;28;20063;-75
2023/08/04 10:05:01;;;;;;;4.78;1.85;;;19.50;99.90;;;;;;5066057;28;20040;-75
2023/08/04 10:07:29;;;;;;;6.60;1.80;;;19.60;99.90;;;;;;5085775;27;20623;-75
2023/08/04 10:09:55;;;;;;;6.18;2.10;;;19.60;99.90;;;;;;5096352;28;20089;-75
2023/08/04 10:12:22;;;;;;;5.60;2.60;;;19.50;99.90;;;;;;5070543;28;20089;-75
2023/08/04 10:14:51;;;;;;;3.65;1.60;;;19.50;99.90;;;;;;5086741;28;20051;-75
2023/08/04 10:17:18;;;;;;;5.25;2.25;;;19.60;99.90;;;;;;5069344;28;20051;-75
2023/08/04 10:19:44;;;;;;;4.60;1.75;;;19.60;99.90;;;;;;5080951;28;20047;-75
2023/08/04 10:22:11;;;;;;;3.97;1.80;;;19.60;99.90;;;;;;5066839;28;20126;-75
2023/08/04 10:24:41;;;;;;;5.95;1.40;;;19.70;99.90;;;;;;5083063;28;20048;-75
2023/08/04 10:27:20;;;;;;;6.97;1.90;;;19.70;99.90;;;;;;5066672;28;20173;-75
2023/08/04 10:30:08;;;;;;;4.05;1.58;;;19.80;99.90;;;;;;5118805;27;20047;-75
2023/08/04 10:32:36;;;;;;;4.35;1.42;;;19.90;99.90;;;;;;5066516;28;20040;-76
2023/08/04 10:35:04;;;;;;;3.70;1.27;;;19.90;99.90;;;;;;5082121;28;20054;-75
2023/08/04 10:37:42;;;;;;;3.28;1.27;;;20.00;99.90;;;;;;5066204;28;20037;-76
2023/08/04 10:40:10;;;;;;;4.25;1.25;;;20.00;99.90;;;;;;5083842;28;20050;-75
2023/08/04 10:42:57;;;;;;;3.78;1.42;;;20.00;99.90;;;;;;5082343;28;20102;-75
2023/08/04 10:45:23;;;;;;;3.92;1.17;;;20.00;99.90;;;;;;5065393;28;20050;-76
2023/08/04 10:47:53;;;;;;;5.03;1.30;;;19.90;99.90;;;;;;5065327;28;20489;-75
2023/08/04 10:50:21;;;;;;;4.82;1.60;;;19.90;99.90;;;;;;5084746;28;20513;-76
2023/08/04 10:52:46;;;;;;;4.45;1.30;;;19.80;99.90;;;;;;5083019;28;20090;-75
2023/08/04 10:55:13;;;;;;;4.75;1.42;;;19.70;99.90;;;;;;5084348;28;20076;-75
2023/08/04 10:57:41;;;;;;;4.25;1.40;;;19.80;99.90;;;;;;5083351;28;20035;-75
2023/08/04 11:00:09;;;;;;;3.78;1.30;;;20.00;99.90;;;;;;5083498;28;20136;-76
2023/08/04 11:02:36;;;;;;;3.17;1.20;;;20.20;99.90;;;;;;5084932;28;20056;-75
2023/08/04 11:05:05;;;;;;;2.05;1.00;;;20.30;99.90;;;;;;5082150;28;20036;-75
2023/08/04 11:07:31;;;;;;;3.83;1.48;;;20.20;99.90;;;;;;5083018;28;20052;-75
2023/08/04 11:10:04;;;;;;;6.07;1.70;;;20.00;99.90;;;;;;5083494;28;20047;-75
2023/08/04 11:12:31;;;;;;;6.47;1.70;;;20.10;99.90;;;;;;5063671;28;20047;-75
2023/08/04 11:14:58;;;;;;;4.72;1.90;;;20.20;99.90;;;;;;5084530;28;20065;-75
2023/08/04 11:17:24;;;;;;;4.93;1.85;;;20.40;99.90;;;;;;5082247;28;20156;-75
2023/08/04 11:19:50;;;;;;;3.10;1.60;;;20.50;99.90;;;;;;5082168;28;22639;-76
2023/08/04 11:22:24;;;;;;;4.13;1.65;;;20.70;99.90;;;;;;5068571;28;20130;-75
2023/08/04 11:24:53;;;;;;;4.25;1.38;;;20.90;99.90;;;;;;5081779;28;20044;-75
2023/08/04 11:27:19;;;;;;;6.47;1.58;;;20.90;99.90;;;;;;5066190;28;20039;-75
2023/08/04 11:29:51;;;;;;;6.30;2.13;;;20.80;99.90;;;;;;5083747;28;20043;-74
2023/08/04 11:32:20;;;;;;;5.45;2.38;;;20.60;99.90;;;;;;5079940;28;20051;-75
2023/08/04 11:34:46;;;;;;;7.63;2.50;;;20.60;99.90;;;;;;5084092;28;20040;-75
2023/08/04 11:37:12;;;;;;;4.72;2.17;;;20.60;99.90;;;;;;5082304;28;20131;-75
2023/08/04 11:39:40;;;;;;;5.40;1.80;;;20.80;99.90;;;;;;5058593;28;20126;-75
2023/08/04 11:42:13;;;;;;;5.47;2.08;;;20.90;99.90;;;;;;5081587;28;20043;-75
2023/08/04 11:44:41;;;;;;;4.75;1.92;;;21.10;99.90;;;;;;5096782;28;20052;-75
2023/08/04 11:47:09;;;;;;;5.40;2.13;;;21.30;99.90;;;;;;5098765;28;20051;-75
2023/08/04 11:49:36;;;;;;;6.72;1.98;;;21.40;99.90;;;;;;5066385;28;20071;-75
2023/08/04 11:52:07;;;;;;;6.03;2.20;;;21.50;99.90;;;;;;5066635;28;20036;-75
2023/08/04 11:54:33;;;;;;;5.18;1.80;;;21.50;99.90;;;;;;5080905;28;20054;-75
2023/08/04 11:56:59;;;;;;;6.28;2.20;;;21.60;99.90;;;;;;5065023;28;20044;-75
2023/08/04 11:59:25;;;;;;;7.63;2.15;;;21.60;99.90;;;;;;5084460;28;20036;-75
2023/08/04 12:02:08;;;;;;;5.15;1.88;;;21.60;99.90;;;;;;5082587;28;20051;-75
2023/08/04 12:04:34;;;;;;;4.95;1.40;;;21.50;99.90;;;;;;5062431;28;20035;-75
2023/08/04 12:07:02;;;;;;;5.20;1.70;;;21.40;99.90;;;;;;5114705;27;20570;-75
2023/08/04 12:09:28;;;;;;;4.38;1.45;;;21.30;99.90;;;;;;5064831;28;20044;-75
2023/08/04 12:11:54;;;;;;;4.30;1.48;;;21.00;99.90;;;;;;5083819;28;20046;-75
2023/08/04 12:14:20;;;;;;;5.07;1.60;;;20.90;99.90;;;;;;5061826;28;20036;-75
2023/08/04 12:17:00;;;;;;;3.53;1.40;;;20.80;99.90;;;;;;5117718;28;20043;-75
2023/08/04 12:19:27;;;;;;;3.75;1.40;;;20.80;99.90;;;;;;5065429;28;20232;-75
2023/08/04 12:21:59;;;;;;;4.57;1.58;;;20.90;99.90;;;;;;5064530;28;20651;-75
2023/08/04 12:24:26;;;;;;;4.13;1.58;;;21.10;99.90;;;;;;5067521;28;20130;-75
2023/08/04 12:26:51;;;;;;;4.85;1.33;;;21.20;99.90;;;;;;5075323;28;20048;-75
2023/08/04 12:29:18;;;;;;;5.22;1.55;;;21.10;99.90;;;;;;5112817;27;20040;-75
2023/08/04 12:31:43;;;;;;;4.95;1.67;;;21.00;99.90;;;;;;5084006;28;20039;-75
2023/08/04 12:34:10;;;;;;;5.65;1.88;;;20.80;99.90;;;;;;5080987;28;20061;-75
2023/08/04 12:36:36;;;;;;;5.43;2.10;;;20.60;99.90;;;;;;5080544;28;20037;-75
2023/08/04 12:39:04;;;;;;;4.80;1.60;;;20.50;99.90;;;;;;5066242;28;20717;-75
2023/08/04 12:41:33;;;;;;;3.97;1.67;;;20.30;99.90;;;;;;5082207;28;20047;-75
2023/08/04 12:43:58;;;;;;;4.40;1.70;;;20.20;99.90;;;;;;5068457;28;20036;-75
2023/08/04 12:46:28;;;;;;;5.80;1.77;;;20.10;99.90;;;;;;5078707;28;20520;-75